Time;durP1;ratioP1;P1;durP2;ratioP2;P2;SDS_P1;SDS_P2;PMS_P1;PMS_P2;Temp;Humidity;BMP_temperature;BMP_pressure;BME280_temperature;BME280_humidity;BME280_pressure;Samples;Min_cycle;Max_cycle;Signal;HPM_P1;HPM_P2
2022/05/19 00:01:23;;;;;;;;;;;23.50;55.00;;;;;;4999723;28;19929;-74
2022/05/19 00:03:50;;;;;;;;;;;23.50;55.20;;;;;;4999507;28;19930;-74
2022/05/19 00:06:16;;;;;;;;;;;23.40;55.30;;;;;;5000214;28;20459;-74
2022/05/19 00:08:43;;;;;;;;;;;23.40;55.30;;;;;;5000640;28;19945;-73
2022/05/19 00:11:10;;;;;;;;;;;23.30;55.40;;;;;;4997379;28;19934;-73
2022/05/19 00:13:38;;;;;;;;;;;23.30;55.40;;;;;;4999137;28;20409;-76
2022/05/19 00:16:06;;;;;;;;;;;23.30;55.50;;;;;;4995020;28;19930;-75
2022/05/19 00:18:33;;;;;;;;;;;23.20;55.50;;;;;;5000277;28;20275;-74
2022/05/19 00:21:00;;;;;;;;;;;23.20;55.60;;;;;;4995888;28;19929;-74
2022/05/19 00:23:27;;;;;;;;;;;23.10;55.70;;;;;;4996229;28;20036;-74
2022/05/19 00:25:54;;;;;;;;;;;23.10;55.80;;;;;;4995024;28;19936;-74
2022/05/19 00:28:20;;;;;;;;;;;23.10;55.80;;;;;;4997368;28;19944;-76
2022/05/19 00:30:48;;;;;;;;;;;23.00;55.90;;;;;;4996477;28;19934;-74
2022/05/19 00:33:15;;;;;;;;;;;23.00;56.00;;;;;;5000058;28;19936;-74
2022/05/19 00:35:42;;;;;;;;;;;22.90;56.10;;;;;;5001450;28;19937;-76
2022/05/19 00:38:08;;;;;;;;;;;22.90;56.10;;;;;;4997867;28;19937;-74
2022/05/19 00:40:35;;;;;;;;;;;22.90;56.20;;;;;;4997119;28;20052;-74
2022/05/19 00:43:02;;;;;;;;;;;22.80;56.30;;;;;;4998577;28;19929;-74
2022/05/19 00:45:34;;;;;;;;;;;22.80;56.40;;;;;;4995078;28;20017;-74
2022/05/19 00:48:05;;;;;;;;;;;22.80;56.50;;;;;;4999861;28;20494;-74
2022/05/19 00:50:32;;;;;;;;;;;22.70;56.50;;;;;;4998240;28;19968;-74
2022/05/19 00:53:01;;;;;;;;;;;22.70;56.60;;;;;;4994218;28;19929;-75
2022/05/19 00:55:29;;;;;;;;;;;22.60;56.60;;;;;;4999603;28;20353;-74
2022/05/19 00:57:58;;;;;;;;;;;22.60;56.60;;;;;;4996701;28;20733;-74
2022/05/19 01:00:25;;;;;;;;;;;22.60;56.70;;;;;;4996317;28;19933;-74
2022/05/19 01:02:54;;;;;;;;;;;22.50;56.80;;;;;;4998430;28;19940;-73
2022/05/19 01:05:25;;;;;;;;;;;22.50;56.90;;;;;;4996691;28;19934;-75
2022/05/19 01:07:54;;;;;;;;;;;22.50;56.90;;;;;;4998945;28;19929;-75
2022/05/19 01:10:20;;;;;;;;;;;22.40;56.90;;;;;;4998667;28;19940;-74
2022/05/19 01:12:48;;;;;;;;;;;22.40;57.10;;;;;;4999225;28;20552;-75
2022/05/19 01:15:15;;;;;;;;;;;22.30;57.10;;;;;;4995265;28;19976;-73
2022/05/19 01:17:42;;;;;;;;;;;22.30;57.10;;;;;;4997335;28;19941;-75
2022/05/19 01:20:11;;;;;;;;;;;22.30;57.20;;;;;;4998746;28;19940;-74
2022/05/19 01:22:43;;;;;;;;;;;22.30;57.20;;;;;;4999585;28;20409;-74
2022/05/19 01:25:13;;;;;;;;;;;22.20;57.30;;;;;;4995807;28;19934;-74
2022/05/19 01:27:41;;;;;;;;;;;22.20;57.30;;;;;;4999680;28;19937;-75
2022/05/19 01:30:09;;;;;;;;;;;22.20;57.40;;;;;;4997234;28;19933;-73
2022/05/19 01:32:36;;;;;;;;;;;22.10;57.50;;;;;;5004332;28;19929;-75
2022/05/19 01:35:03;;;;;;;;;;;22.10;57.60;;;;;;4999735;28;21226;-74
2022/05/19 01:37:30;;;;;;;;;;;22.00;57.60;;;;;;4998970;28;19936;-74
2022/05/19 01:39:59;;;;;;;;;;;22.00;57.60;;;;;;4994609;28;19936;-75
2022/05/19 01:42:32;;;;;;;;;;;21.90;57.70;;;;;;4999274;28;19937;-74
2022/05/19 01:45:06;;;;;;;;;;;22.00;57.80;;;;;;4997742;28;20417;-74
2022/05/19 01:47:36;;;;;;;;;;;21.90;57.80;;;;;;4997822;28;20385;-73
2022/05/19 01:50:05;;;;;;;;;;;21.80;57.80;;;;;;5000473;28;19929;-76
2022/05/19 01:52:35;;;;;;;;;;;21.80;57.90;;;;;;4997333;28;19948;-75
2022/05/19 01:55:04;;;;;;;;;;;21.70;57.90;;;;;;5001155;28;19940;-75
2022/05/19 01:57:32;;;;;;;;;;;21.80;58.00;;;;;;4998703;28;19929;-75
2022/05/19 02:00:04;;;;;;;;;;;21.70;58.00;;;;;;5003271;28;19929;-74
2022/05/19 02:02:34;;;;;;;;;;;21.60;58.10;;;;;;4998834;28;19933;-74
2022/05/19 02:05:03;;;;;;;;;;;21.60;58.10;;;;;;4997815;28;19936;-76
2022/05/19 02:07:32;;;;;;;;;;;21.60;58.20;;;;;;4997509;28;19935;-75
2022/05/19 02:10:02;;;;;;;;;;;21.50;58.20;;;;;;4999609;28;20031;-74
2022/05/19 02:12:32;;;;;;;;;;;21.50;58.30;;;;;;4999223;28;19930;-75
2022/05/19 02:14:59;;;;;;;;;;;21.40;58.30;;;;;;4998509;28;19930;-74
2022/05/19 02:17:29;;;;;;;;;;;21.40;58.40;;;;;;4976544;28;19930;-74
2022/05/19 02:19:58;;;;;;;;;;;21.40;58.50;;;;;;4980161;28;19926;-74
2022/05/19 02:22:29;;;;;;;;;;;21.40;58.40;;;;;;4978031;28;20301;-74
2022/05/19 02:24:58;;;;;;;;;;;21.30;58.50;;;;;;4978447;28;19934;-74
2022/05/19 02:27:31;;;;;;;;;;;21.30;58.60;;;;;;4979883;28;20445;-74
2022/05/19 02:29:57;;;;;;;;;;;21.20;58.60;;;;;;4978657;28;20020;-74
2022/05/19 02:32:24;;;;;;;;;;;21.20;58.60;;;;;;4997851;28;20650;-74
2022/05/19 02:34:52;;;;;;;;;;;21.20;58.70;;;;;;5000438;28;19980;-76
2022/05/19 02:37:18;;;;;;;;;;;21.10;58.70;;;;;;4998066;28;19987;-74
2022/05/19 02:39:45;;;;;;;;;;;21.10;58.80;;;;;;4997667;28;19925;-74
2022/05/19 02:42:12;;;;;;;;;;;21.00;58.80;;;;;;4997669;28;19937;-75
2022/05/19 02:44:38;;;;;;;;;;;21.00;58.80;;;;;;4995454;28;19940;-74
2022/05/19 02:47:05;;;;;;;;;;;21.00;58.90;;;;;;4993857;28;19930;-76
2022/05/19 02:49:31;;;;;;;;;;;20.90;58.90;;;;;;4999671;28;20044;-76
2022/05/19 02:51:59;;;;;;;;;;;20.90;58.90;;;;;;4998552;28;19952;-76
2022/05/19 02:54:26;;;;;;;;;;;20.90;59.00;;;;;;4999534;28;19972;-74
2022/05/19 02:56:52;;;;;;;;;;;20.90;59.10;;;;;;5001040;28;20424;-74
2022/05/19 02:59:19;;;;;;;;;;;20.80;59.10;;;;;;4997168;28;20373;-74
2022/05/19 03:01:46;;;;;;;;;;;20.80;59.20;;;;;;5001245;28;20400;-74
2022/05/19 03:04:12;;;;;;;;;;;20.70;59.20;;;;;;4993692;28;19940;-74
2022/05/19 03:06:39;;;;;;;;;;;20.80;59.30;;;;;;4998938;28;19930;-74
2022/05/19 03:09:07;;;;;;;;;;;20.70;59.20;;;;;;4997485;28;20541;-77
2022/05/19 03:11:34;;;;;;;;;;;20.70;59.30;;;;;;5005770;28;19939;-77
2022/05/19 03:14:01;;;;;;;;;;;20.60;59.30;;;;;;4997093;28;19929;-74
2022/05/19 03:16:28;;;;;;;;;;;20.60;59.40;;;;;;4998820;28;19937;-75
2022/05/19 03:18:54;;;;;;;;;;;20.60;59.50;;;;;;5001745;28;20012;-75
2022/05/19 03:21:21;;;;;;;;;;;20.50;59.50;;;;;;5000375;28;19940;-72
2022/05/19 03:23:47;;;;;;;;;;;20.50;59.60;;;;;;5001401;28;19933;-74
2022/05/19 03:26:15;;;;;;;;;;;20.40;58.80;;;;;;4999532;28;19936;-69
2022/05/19 03:28:42;;;;;;;;;;;20.10;60.50;;;;;;4999854;28;19933;-70
2022/05/19 03:31:09;;;;;;;;;;;19.90;60.60;;;;;;5001961;28;19929;-68
2022/05/19 03:33:35;;;;;;;;;;;19.90;60.90;;;;;;5005551;28;19930;-71
2022/05/19 03:36:04;;;;;;;;;;;19.80;60.90;;;;;;5003879;28;19936;-69
2022/05/19 03:38:30;;;;;;;;;;;19.90;61.10;;;;;;4997295;28;19929;-67
2022/05/19 03:40:57;;;;;;;;;;;19.80;61.00;;;;;;5001984;28;19930;-66
2022/05/19 03:43:25;;;;;;;;;;;19.80;61.00;;;;;;5008152;28;19940;-68
2022/05/19 03:45:51;;;;;;;;;;;19.80;61.00;;;;;;5002628;28;19930;-68
2022/05/19 03:48:18;;;;;;;;;;;19.80;61.00;;;;;;5004474;28;20398;-67
2022/05/19 03:50:45;;;;;;;;;;;19.80;60.90;;;;;;5003510;28;19937;-69
2022/05/19 03:53:12;;;;;;;;;;;19.80;60.90;;;;;;5003298;28;19944;-68
2022/05/19 03:55:38;;;;;;;;;;;19.80;60.90;;;;;;4998829;28;19930;-67
2022/05/19 03:58:05;;;;;;;;;;;19.80;60.80;;;;;;5013187;28;20085;-67
2022/05/19 04:00:34;;;;;;;;;;;19.80;60.90;;;;;;4997555;28;19930;-70
2022/05/19 04:03:00;;;;;;;;;;;19.80;61.00;;;;;;5006461;28;20560;-67
2022/05/19 04:05:28;;;;;;;;;;;19.70;60.90;;;;;;5004771;28;19973;-68
2022/05/19 04:07:54;;;;;;;;;;;19.70;61.10;;;;;;5001485;28;19929;-67
2022/05/19 04:10:21;;;;;;;;;;;19.70;61.10;;;;;;5002951;28;19933;-71
2022/05/19 04:12:48;;;;;;;;;;;19.70;61.10;;;;;;5011456;28;19930;-68
2022/05/19 04:15:14;;;;;;;;;;;19.70;61.10;;;;;;5001898;28;19933;-70
2022/05/19 04:17:42;;;;;;;;;;;19.60;61.10;;;;;;5000187;28;19926;-67
2022/05/19 04:20:09;;;;;;;;;;;19.60;61.20;;;;;;5001490;28;19940;-69
2022/05/19 04:22:36;;;;;;;;;;;19.60;61.30;;;;;;4997740;28;19934;-68
2022/05/19 04:25:03;;;;;;;;;;;19.60;61.30;;;;;;5003602;28;19929;-66
2022/05/19 04:27:30;;;;;;;;;;;19.60;61.40;;;;;;5004229;28;19929;-68
2022/05/19 04:29:57;;;;;;;;;;;19.50;61.30;;;;;;5003291;28;19937;-67
2022/05/19 04:32:24;;;;;;;;;;;19.50;61.40;;;;;;5003705;28;20207;-71
2022/05/19 04:34:52;;;;;;;;;;;19.50;61.60;;;;;;5003624;28;19929;-69
2022/05/19 04:37:18;;;;;;;;;;;19.40;61.50;;;;;;5003203;28;19937;-67
2022/05/19 04:39:45;;;;;;;;;;;19.40;61.60;;;;;;5003706;28;19948;-68
2022/05/19 04:42:12;;;;;;;;;;;19.40;61.70;;;;;;5001890;28;19945;-69
2022/05/19 04:44:39;;;;;;;;;;;19.40;61.70;;;;;;5004603;28;19952;-67
2022/05/19 04:47:06;;;;;;;;;;;19.40;61.70;;;;;;5001913;28;19992;-69
2022/05/19 04:49:33;;;;;;;;;;;19.40;61.80;;;;;;5004223;28;19936;-66
2022/05/19 04:52:01;;;;;;;;;;;19.40;61.90;;;;;;5001201;28;19929;-67
2022/05/19 04:54:28;;;;;;;;;;;19.30;61.90;;;;;;5003300;28;19925;-68
2022/05/19 04:56:54;;;;;;;;;;;19.30;61.90;;;;;;5000929;28;19940;-67
2022/05/19 04:59:21;;;;;;;;;;;19.30;61.90;;;;;;5000896;28;19937;-68
2022/05/19 05:01:48;;;;;;;;;;;19.30;62.00;;;;;;4999547;28;19937;-69
2022/05/19 05:04:15;;;;;;;;;;;19.20;62.00;;;;;;5002569;28;19930;-67
2022/05/19 05:06:42;;;;;;;;;;;19.20;62.00;;;;;;5003159;28;19930;-68
2022/05/19 05:09:10;;;;;;;;;;;19.20;62.20;;;;;;4999457;28;20297;-67
2022/05/19 05:11:37;;;;;;;;;;;19.20;62.20;;;;;;5004009;28;20663;-68
2022/05/19 05:14:04;;;;;;;;;;;19.20;62.30;;;;;;4997913;28;20058;-69
2022/05/19 05:16:31;;;;;;;;;;;19.20;62.40;;;;;;4994922;28;19929;-69
2022/05/19 05:18:57;;;;;;;;;;;19.20;62.40;;;;;;4996825;28;19929;-68
2022/05/19 05:21:24;;;;;;;;;;;19.20;62.40;;;;;;5002843;28;19929;-68
2022/05/19 05:23:50;;;;;;;;;;;19.20;62.50;;;;;;4999182;28;19933;-70
2022/05/19 05:26:18;;;;;;;;;;;19.10;62.40;;;;;;5000686;28;19929;-67
2022/05/19 05:28:45;;;;;;;;;;;19.10;62.60;;;;;;4994384;28;19945;-69
2022/05/19 05:31:11;;;;;;;;;;;19.10;62.60;;;;;;4995811;28;19925;-67
2022/05/19 05:33:38;;;;;;;;;;;19.10;62.70;;;;;;5007864;28;19955;-66
2022/05/19 05:36:05;;;;;;;;;;;19.10;62.80;;;;;;4995021;28;20294;-67
2022/05/19 05:38:31;;;;;;;;;;;19.10;62.80;;;;;;4998287;28;19933;-69
2022/05/19 05:40:59;;;;;;;;;;;19.10;62.90;;;;;;5001166;28;20480;-66
2022/05/19 05:43:26;;;;;;;;;;;19.10;62.80;;;;;;5001908;28;20027;-66
2022/05/19 05:45:53;;;;;;;;;;;19.10;62.80;;;;;;5001471;28;19936;-68
2022/05/19 05:48:20;;;;;;;;;;;19.10;62.80;;;;;;5002991;28;19934;-68
2022/05/19 05:50:46;;;;;;;;;;;19.10;62.70;;;;;;5004184;28;19937;-70
2022/05/19 05:53:13;;;;;;;;;;;19.10;62.90;;;;;;5002179;28;19930;-71
2022/05/19 05:55:40;;;;;;;;;;;19.10;62.90;;;;;;5002669;28;19937;-66
2022/05/19 05:58:07;;;;;;;;;;;19.20;63.00;;;;;;5000579;28;20044;-67
2022/05/19 06:00:35;;;;;;;;;;;19.20;63.00;;;;;;4999913;28;19929;-69
2022/05/19 06:03:01;;;;;;;;;;;19.10;62.90;;;;;;5001654;28;20384;-71
2022/05/19 06:05:28;;;;;;;;;;;19.10;62.80;;;;;;5002801;28;20006;-68
2022/05/19 06:07:54;;;;;;;;;;;19.20;62.90;;;;;;5000733;28;19933;-67
2022/05/19 06:10:21;;;;;;;;;;;19.20;63.00;;;;;;5001904;28;20357;-69
2022/05/19 06:12:49;;;;;;;;;;;19.20;62.80;;;;;;4998774;28;19984;-69
2022/05/19 06:15:16;;;;;;;;;;;19.20;62.80;;;;;;4993480;28;19933;-68
2022/05/19 06:17:44;;;;;;;;;;;19.20;62.90;;;;;;5000256;28;19937;-69
2022/05/19 06:20:12;;;;;;;;;;;19.20;62.80;;;;;;4999991;28;19933;-68
2022/05/19 06:22:39;;;;;;;;;;;19.30;63.10;;;;;;5000186;28;20317;-66
2022/05/19 06:25:06;;;;;;;;;;;19.20;63.00;;;;;;4995061;28;19933;-69
2022/05/19 06:27:33;;;;;;;;;;;19.30;63.10;;;;;;5001868;28;19937;-66
2022/05/19 06:29:59;;;;;;;;;;;19.30;63.10;;;;;;5000713;28;19941;-67
2022/05/19 06:32:26;;;;;;;;;;;19.30;63.10;;;;;;4998207;28;20650;-66
2022/05/19 06:34:54;;;;;;;;;;;19.30;63.10;;;;;;4997751;28;20373;-68
2022/05/19 06:37:20;;;;;;;;;;;19.30;62.80;;;;;;4999440;28;19929;-69
2022/05/19 06:39:47;;;;;;;;;;;19.30;62.90;;;;;;5001289;28;19941;-68
2022/05/19 06:42:15;;;;;;;;;;;19.30;62.80;;;;;;5001383;28;19992;-68
2022/05/19 06:44:42;;;;;;;;;;;19.30;62.90;;;;;;5001971;28;19999;-70
2022/05/19 06:47:13;;;;;;;;;;;19.40;62.90;;;;;;5000934;28;19929;-66
2022/05/19 06:49:40;;;;;;;;;;;19.40;62.80;;;;;;5001508;28;19940;-66
2022/05/19 06:52:10;;;;;;;;;;;19.40;63.60;;;;;;5001332;28;20052;-66
2022/05/19 06:54:37;;;;;;;;;;;19.40;62.90;;;;;;5000335;28;19933;-68
2022/05/19 06:57:03;;;;;;;;;;;19.50;62.90;;;;;;5001477;28;19936;-69
2022/05/19 06:59:30;;;;;;;;;;;19.50;62.80;;;;;;4998646;28;19936;-68
2022/05/19 07:01:57;;;;;;;;;;;19.50;62.80;;;;;;5000997;28;19929;-67
2022/05/19 07:04:24;;;;;;;;;;;19.50;62.90;;;;;;5001618;28;19929;-68
2022/05/19 07:06:52;;;;;;;;;;;19.50;62.80;;;;;;4998290;28;19933;-67
2022/05/19 07:09:19;;;;;;;;;;;19.60;62.80;;;;;;5001807;28;20027;-66
2022/05/19 07:11:46;;;;;;;;;;;19.60;62.90;;;;;;5011666;28;19936;-67
2022/05/19 07:14:14;;;;;;;;;;;19.70;63.00;;;;;;4994590;28;19930;-69
2022/05/19 07:16:43;;;;;;;;;;;19.70;63.30;;;;;;5000004;28;20572;-68
2022/05/19 07:21:54;;;;;;;;;;;19.70;63.20;;;;;;5000849;28;20020;-67
2022/05/19 07:24:23;;;;;;;;;;;19.80;63.10;;;;;;4998861;28;19937;-69
2022/05/19 07:26:51;;;;;;;;;;;19.80;63.20;;;;;;4997608;28;19930;-69
2022/05/19 07:29:18;;;;;;;;;;;19.90;63.10;;;;;;4996879;28;19936;-69
2022/05/19 07:31:46;;;;;;;;;;;19.90;62.90;;;;;;5000752;28;19930;-68
2022/05/19 07:34:14;;;;;;;;;;;19.90;62.80;;;;;;5003025;28;19930;-67
2022/05/19 07:36:41;;;;;;;;;;;20.00;62.60;;;;;;5004419;28;19937;-67
2022/05/19 07:39:08;;;;;;;;;;;20.00;62.50;;;;;;5004614;28;19933;-66
2022/05/19 07:41:36;;;;;;;;;;;20.00;62.50;;;;;;5002211;28;19926;-66
2022/05/19 07:44:03;;;;;;;;;;;20.10;62.60;;;;;;5003814;28;19937;-68
2022/05/19 07:46:30;;;;;;;;;;;20.10;62.50;;;;;;5003533;28;19936;-66
2022/05/19 07:48:57;;;;;;;;;;;20.10;62.40;;;;;;5004687;28;19940;-65
2022/05/19 07:51:24;;;;;;;;;;;20.20;63.00;;;;;;5011036;28;19929;-69
2022/05/19 07:53:50;;;;;;;;;;;20.20;62.80;;;;;;5005788;28;20293;-67
2022/05/19 07:56:17;;;;;;;;;;;20.20;62.70;;;;;;5004707;28;19926;-68
2022/05/19 07:58:46;;;;;;;;;;;20.30;62.70;;;;;;5003074;28;19938;-68
2022/05/19 08:01:12;;;;;;;;;;;20.30;62.50;;;;;;5001591;28;20309;-69
2022/05/19 08:03:39;;;;;;;;;;;20.30;62.30;;;;;;5004206;28;20762;-68
2022/05/19 08:06:07;;;;;;;;;;;20.30;62.30;;;;;;5002683;28;19933;-68
2022/05/19 08:08:34;;;;;;;;;;;20.40;62.50;;;;;;5000618;28;19969;-67
2022/05/19 08:11:00;;;;;;;;;;;20.50;62.40;;;;;;5003003;28;19929;-68
2022/05/19 08:16:13;;;;;;;;;;;20.50;62.20;;;;;;4993308;28;19932;-67
2022/05/19 08:18:40;;;;;;;;;;;20.60;62.10;;;;;;5004050;28;19933;-67
2022/05/19 08:21:08;;;;;;;;;;;20.60;62.00;;;;;;5000382;28;19937;-68
2022/05/19 08:23:37;;;;;;;;;;;20.60;62.00;;;;;;5001949;28;20729;-67
2022/05/19 08:26:04;;;;;;;;;;;20.70;61.90;;;;;;5002360;28;20716;-68
2022/05/19 08:28:31;;;;;;;;;;;20.80;61.70;;;;;;5003046;28;20382;-68
2022/05/19 08:30:58;;;;;;;;;;;20.80;61.70;;;;;;5000779;28;20531;-69
2022/05/19 08:33:27;;;;;;;;;;;20.90;61.70;;;;;;5012305;28;20008;-68
2022/05/19 08:35:53;;;;;;;;;;;20.90;61.60;;;;;;4995290;28;19964;-69
2022/05/19 08:38:20;;;;;;;;;;;20.90;61.60;;;;;;5000516;28;19929;-70
2022/05/19 08:40:48;;;;;;;;;;;21.00;61.60;;;;;;4998906;28;19929;-70
2022/05/19 08:43:16;;;;;;;;;;;21.10;61.50;;;;;;5004461;28;19936;-70
2022/05/19 08:45:45;;;;;;;;;;;21.10;61.50;;;;;;5003269;28;20337;-71
2022/05/19 08:48:13;;;;;;;;;;;21.20;61.40;;;;;;4998143;28;19933;-67
2022/05/19 08:50:43;;;;;;;;;;;21.20;61.00;;;;;;5004230;28;19929;-68
2022/05/19 08:53:11;;;;;;;;;;;21.30;60.60;;;;;;4997057;28;19929;-70
2022/05/19 08:55:40;;;;;;;;;;;21.30;60.60;;;;;;5000475;28;19929;-67
2022/05/19 08:58:11;;;;;;;;;;;21.40;60.50;;;;;;4997415;28;19933;-68
2022/05/19 09:00:39;;;;;;;;;;;21.40;60.40;;;;;;5001061;28;19929;-69
2022/05/19 09:03:09;;;;;;;;;;;21.50;60.10;;;;;;5002003;28;19933;-69
2022/05/19 09:05:49;;;;;;;;;;;21.50;59.90;;;;;;5002112;28;19940;-71
2022/05/19 09:08:22;;;;;;;;;;;21.60;59.90;;;;;;4999829;28;19930;-69
2022/05/19 09:10:56;;;;;;;;;;;21.60;59.80;;;;;;5003414;28;19925;-68
2022/05/19 09:13:30;;;;;;;;;;;21.70;59.70;;;;;;4995749;28;21617;-69
2022/05/19 09:15:56;;;;;;;;;;;21.70;59.60;;;;;;4999588;28;20032;-67
2022/05/19 09:18:27;;;;;;;;;;;21.80;59.50;;;;;;4998957;28;19929;-68
2022/05/19 09:20:56;;;;;;;;;;;21.80;59.40;;;;;;4999493;28;19937;-69
2022/05/19 09:23:24;;;;;;;;;;;21.90;59.30;;;;;;5001206;28;19961;-70
2022/05/19 09:25:52;;;;;;;;;;;22.00;59.20;;;;;;4999175;28;19936;-70
2022/05/19 09:28:19;;;;;;;;;;;22.00;59.10;;;;;;4994438;28;19936;-68
2022/05/19 09:30:48;;;;;;;;;;;22.10;59.00;;;;;;4999775;28;19929;-69
2022/05/19 09:33:15;;;;;;;;;;;22.10;58.90;;;;;;5002718;28;19933;-68
2022/05/19 09:35:43;;;;;;;;;;;22.20;58.80;;;;;;5000885;28;19929;-70
2022/05/19 09:38:16;;;;;;;;;;;22.30;58.80;;;;;;5000676;28;19929;-69
2022/05/19 09:40:46;;;;;;;;;;;22.30;58.60;;;;;;5001811;28;19955;-70
2022/05/19 09:43:16;;;;;;;;;;;22.40;58.60;;;;;;4999638;28;19930;-70
2022/05/19 09:45:44;;;;;;;;;;;22.50;58.50;;;;;;4998503;28;20769;-70
2022/05/19 09:48:12;;;;;;;;;;;22.50;58.40;;;;;;5001774;28;19932;-68
2022/05/19 09:50:42;;;;;;;;;;;22.50;58.40;;;;;;5002527;28;19977;-67
2022/05/19 09:53:21;;;;;;;;;;;22.60;58.30;;;;;;4997164;28;20454;-69
2022/05/19 09:55:54;;;;;;;;;;;22.70;58.30;;;;;;5002747;28;20469;-69
2022/05/19 09:58:22;;;;;;;;;;;22.70;58.20;;;;;;4998946;28;19948;-72
2022/05/19 10:00:50;;;;;;;;;;;22.80;58.20;;;;;;4997916;28;19929;-69
2022/05/19 10:03:19;;;;;;;;;;;22.90;58.00;;;;;;5001946;28;19936;-68
2022/05/19 10:05:47;;;;;;;;;;;23.00;57.90;;;;;;5001774;28;19936;-68
2022/05/19 10:08:15;;;;;;;;;;;23.00;57.80;;;;;;5000870;28;19930;-68
2022/05/19 10:10:48;;;;;;;;;;;23.10;57.80;;;;;;5002962;28;19929;-69
2022/05/19 10:13:17;;;;;;;;;;;23.10;57.70;;;;;;4998257;28;20736;-67
2022/05/19 10:15:47;;;;;;;;;;;23.20;57.70;;;;;;5000545;28;20012;-69
2022/05/19 10:18:20;;;;;;;;;;;23.30;57.60;;;;;;5000947;28;19937;-69
2022/05/19 10:20:52;;;;;;;;;;;23.30;57.50;;;;;;5002317;28;19934;-69
2022/05/19 10:23:31;;;;;;;;;;;23.40;57.40;;;;;;4999671;28;19929;-69
2022/05/19 10:26:03;;;;;;;;;;;23.50;57.30;;;;;;5002460;28;19933;-69
2022/05/19 10:31:29;;;;;;;;;;;23.70;57.10;;;;;;5001325;28;19992;-69
2022/05/19 10:34:01;;;;;;;;;;;23.80;57.00;;;;;;5002118;28;19930;-69
2022/05/19 10:36:31;;;;;;;;;;;23.80;56.90;;;;;;5001712;28;19933;-70
2022/05/19 10:39:09;;;;;;;;;;;23.90;56.80;;;;;;5000106;28;20020;-70
2022/05/19 10:41:43;;;;;;;;;;;24.00;56.70;;;;;;5001476;28;19980;-69
2022/05/19 10:44:18;;;;;;;;;;;24.10;56.60;;;;;;5000095;28;19933;-68
2022/05/19 10:46:50;;;;;;;;;;;24.20;56.60;;;;;;5000186;28;19975;-69
2022/05/19 10:49:24;;;;;;;;;;;24.20;56.50;;;;;;5001670;28;19929;-70
2022/05/19 10:51:59;;;;;;;;;;;24.30;56.40;;;;;;5005944;28;19937;-71
2022/05/19 10:54:35;;;;;;;;;;;24.40;55.80;;;;;;5001669;28;20344;-68
2022/05/19 10:57:22;;;;;;;;;;;24.40;56.30;;;;;;5001810;28;19929;-70
2022/05/19 10:59:58;;;;;;;;;;;24.50;56.20;;;;;;4990431;28;19930;-69
2022/05/19 11:02:39;;;;;;;;;;;24.50;56.00;;;;;;4998985;28;19936;-70
2022/05/19 11:05:23;;;;;;;;;;;24.60;56.10;;;;;;5002076;28;19925;-71
2022/05/19 11:07:57;;;;;;;;;;;24.70;56.00;;;;;;4990235;28;19930;-68
2022/05/19 11:10:27;;;;;;;;;;;24.70;55.80;;;;;;4994592;28;19937;-71
2022/05/19 11:13:00;;;;;;;;;;;24.80;55.80;;;;;;5003863;28;19933;-70
2022/05/19 11:15:32;;;;;;;;;;;24.90;55.90;;;;;;4999776;28;20471;-67
2022/05/19 11:18:04;;;;;;;;;;;25.00;55.80;;;;;;4996412;28;19930;-69
2022/05/19 11:20:33;;;;;;;;;;;25.10;55.60;;;;;;4994342;28;19932;-70
2022/05/19 11:23:03;;;;;;;;;;;25.10;55.30;;;;;;5000269;28;19930;-70
2022/05/19 11:28:19;;;;;;;;;;;25.30;55.30;;;;;;4992613;28;20463;-69
2022/05/19 11:30:50;;;;;;;;;;;25.40;55.10;;;;;;4988706;28;20305;-68
2022/05/19 11:33:19;;;;;;;;;;;25.40;55.10;;;;;;5007937;28;19934;-69
2022/05/19 11:35:47;;;;;;;;;;;25.50;54.90;;;;;;5002645;28;19926;-68
2022/05/19 11:38:17;;;;;;;;;;;25.50;54.90;;;;;;5003498;28;19952;-70
2022/05/19 11:40:47;;;;;;;;;;;25.60;54.80;;;;;;4999975;28;19929;-71
2022/05/19 11:43:17;;;;;;;;;;;25.70;54.60;;;;;;5006455;28;19929;-71
2022/05/19 11:45:46;;;;;;;;;;;25.80;54.50;;;;;;4993428;28;20011;-69
2022/05/19 11:56:44;;;;;;;;;;;26.10;53.90;;;;;;5003788;28;19976;-69
2022/05/19 11:59:11;;;;;;;;;;;26.20;53.90;;;;;;4997473;28;19930;-69
2022/05/19 12:01:42;;;;;;;;;;;26.30;53.40;;;;;;5003649;28;19934;-68
2022/05/19 12:04:13;;;;;;;;;;;26.30;53.30;;;;;;5003744;28;21173;-68
2022/05/19 12:06:44;;;;;;;;;;;26.30;53.20;;;;;;5002803;28;20401;-67
2022/05/19 12:09:20;;;;;;;;;;;26.40;53.20;;;;;;5001096;28;19968;-70
2022/05/19 12:11:52;;;;;;;;;;;26.50;53.20;;;;;;5004837;28;19933;-71
2022/05/19 12:14:21;;;;;;;;;;;26.60;53.20;;;;;;4996174;28;20413;-68
2022/05/19 12:16:51;;;;;;;;;;;26.60;53.10;;;;;;4999695;28;19934;-71
2022/05/19 12:19:32;;;;;;;;;;;26.70;53.00;;;;;;4993878;28;19988;-68
2022/05/19 12:21:58;;;;;;;;;;;26.70;52.70;;;;;;5000734;28;20028;-69
2022/05/19 12:24:26;;;;;;;;;;;26.80;52.70;;;;;;4994810;28;20556;-67
2022/05/19 12:26:54;;;;;;;;;;;26.90;52.40;;;;;;5001500;28;19929;-70
2022/05/19 12:29:30;;;;;;;;;;;27.00;52.50;;;;;;4999962;28;19973;-71
2022/05/19 12:31:56;;;;;;;;;;;27.00;52.40;;;;;;4997269;28;20016;-69
2022/05/19 12:34:24;;;;;;;;;;;27.10;52.20;;;;;;5008263;28;19925;-72
2022/05/19 12:37:06;;;;;;;;;;;27.20;52.20;;;;;;5000732;28;19933;-71
2022/05/19 12:39:42;;;;;;;;;;;27.20;52.00;;;;;;4999573;28;20406;-73
2022/05/19 12:42:13;;;;;;;;;;;27.20;51.90;;;;;;5003196;28;20015;-70
2022/05/19 12:44:45;;;;;;;;;;;27.30;51.90;;;;;;5001919;28;19933;-70
2022/05/19 12:47:12;;;;;;;;;;;27.40;51.70;;;;;;5003238;28;19929;-69
2022/05/19 12:49:40;;;;;;;;;;;27.40;51.80;;;;;;5002456;28;19929;-70
2022/05/19 12:52:14;;;;;;;;;;;27.40;51.70;;;;;;5002996;28;19940;-72
2022/05/19 12:54:51;;;;;;;;;;;27.50;51.60;;;;;;5000823;28;20460;-70
2022/05/19 12:57:26;;;;;;;;;;;27.50;51.50;;;;;;5000792;28;19937;-71
2022/05/19 12:59:55;;;;;;;;;;;27.50;51.60;;;;;;4996819;28;19930;-69
2022/05/19 13:02:25;;;;;;;;;;;27.50;51.60;;;;;;5001665;28;19934;-71
2022/05/19 13:04:55;;;;;;;;;;;27.60;51.70;;;;;;5002977;28;19929;-69
2022/05/19 13:07:25;;;;;;;;;;;27.60;51.60;;;;;;5000351;28;19934;-70
2022/05/19 13:09:54;;;;;;;;;;;27.60;51.30;;;;;;5000219;28;20496;-70
2022/05/19 13:12:24;;;;;;;;;;;27.70;51.30;;;;;;5002584;28;20657;-70
2022/05/19 13:14:53;;;;;;;;;;;27.80;51.30;;;;;;4996636;28;19929;-72
2022/05/19 13:17:23;;;;;;;;;;;27.90;51.20;;;;;;4998127;28;19941;-69
2022/05/19 13:19:50;;;;;;;;;;;27.90;51.10;;;;;;4999839;28;19934;-70
2022/05/19 13:22:21;;;;;;;;;;;28.00;50.90;;;;;;4995694;28;20408;-73
2022/05/19 13:24:49;;;;;;;;;;;28.10;50.60;;;;;;4997892;28;20370;-70
2022/05/19 13:30:22;;;;;;;;;;;28.20;50.10;;;;;;4999398;28;20576;-72
2022/05/19 13:32:48;;;;;;;;;;;28.30;49.90;;;;;;4999179;28;21080;-72
2022/05/19 13:35:16;;;;;;;;;;;28.40;49.70;;;;;;5001037;28;19929;-71
2022/05/19 13:37:44;;;;;;;;;;;28.50;49.50;;;;;;5001442;28;19940;-72
2022/05/19 13:40:17;;;;;;;;;;;28.60;49.60;;;;;;5003614;28;19929;-70
2022/05/19 13:42:44;;;;;;;;;;;28.60;49.40;;;;;;5002979;28;20308;-69
2022/05/19 13:45:15;;;;;;;;;;;28.70;49.30;;;;;;4996964;28;19936;-69
2022/05/19 13:47:42;;;;;;;;;;;28.80;49.30;;;;;;5002162;28;19930;-68
2022/05/19 13:50:11;;;;;;;;;;;28.80;48.90;;;;;;5003247;28;19940;-68
2022/05/19 13:52:44;;;;;;;;;;;28.80;48.70;;;;;;5003563;28;20047;-67
2022/05/19 13:55:22;;;;;;;;;;;28.90;48.60;;;;;;5003227;28;20019;-68
2022/05/19 13:57:50;;;;;;;;;;;29.00;48.50;;;;;;4999282;28;20389;-69
2022/05/19 14:00:18;;;;;;;;;;;29.10;47.90;;;;;;4996031;28;20020;-72
2022/05/19 14:02:45;;;;;;;;;;;29.10;47.90;;;;;;4997472;28;20044;-70
2022/05/19 14:05:15;;;;;;;;;;;29.20;47.80;;;;;;4996162;28;19965;-67
2022/05/19 14:07:41;;;;;;;;;;;29.20;48.00;;;;;;4997815;28;19929;-67
2022/05/19 14:10:09;;;;;;;;;;;29.30;47.90;;;;;;4995612;28;20539;-69
2022/05/19 14:12:41;;;;;;;;;;;29.40;48.00;;;;;;5002489;28;19929;-71
2022/05/19 14:15:08;;;;;;;;;;;29.40;47.80;;;;;;4993004;28;19946;-71
2022/05/19 14:17:37;;;;;;;;;;;29.50;47.80;;;;;;5003273;28;19933;-72
2022/05/19 14:20:06;;;;;;;;;;;29.50;47.70;;;;;;5002508;28;20444;-69
2022/05/19 14:22:33;;;;;;;;;;;29.60;47.40;;;;;;5002828;28;19952;-72
2022/05/19 14:25:03;;;;;;;;;;;29.70;47.40;;;;;;5002167;28;19941;-70
2022/05/19 14:27:33;;;;;;;;;;;30.20;43.60;;;;;;4998170;28;20024;-71
2022/05/19 14:30:03;;;;;;;;;;;30.90;41.90;;;;;;5001194;28;19941;-72
2022/05/19 14:32:33;;;;;;;;;;;31.30;42.30;;;;;;5001891;28;19930;-72
2022/05/19 14:35:07;;;;;;;;;;;31.50;42.30;;;;;;5003461;28;19936;-77
2022/05/19 14:37:37;;;;;;;;;;;31.60;42.20;;;;;;5002919;28;20491;-76
2022/05/19 14:43:05;;;;;;;;;;;31.80;42.20;;;;;;4994819;28;20036;-76
2022/05/19 14:45:34;;;;;;;;;;;31.80;42.10;;;;;;5001648;28;20380;-77
2022/05/19 14:48:01;;;;;;;;;;;31.90;41.80;;;;;;5001056;28;19929;-78
2022/05/19 14:50:29;;;;;;;;;;;32.10;42.40;;;;;;5004280;28;19937;-78